Impacts TAF Board
For situational awareness. Not to be used for flight planning purposes.
IDs:

KPDX - Portland Intl Arpt, OR, US

Issued at 2030 UTC 02 Oct 2022
Updated at 2153 UTC 02 Oct 2022
Potential Impact None Slight Moderate High
Time<<03/10Z 03/11Z 03/12Z 03/13Z 03/14Z 03/15Z 03/16Z 03/17Z 03/18Z 03/19Z 03/20Z 03/21Z 03/22Z>>
Type PRVL PRVL PRVL PRVL PRVL PRVL PRVL PRVL
VIS >6 >6 >6 >6 >6 >6 >6 >6
CIG -- -- -- -- -- -- -- --
Cover SKC SKC SKC SKC SKC FEW FEW FEW
FltCat VFR VFR VFR VFR VFR VFR VFR VFR
WX -- -- -- -- -- -- -- --
WDir VRB VRB VRB VRB VRB VRB VRB VRB
WSpd 3 3 3 3 3 3 3 3
WGst -- -- -- -- -- -- -- --
WSHgt -- -- -- -- -- -- -- --
WSDir -- -- -- -- -- -- -- --
WSSpd -- -- -- -- -- -- -- --
Raw TAF
KPDX 022030Z 0221/0318 30005KT P6SM SKC
  FM030700 VRB03KT P6SM SKC
  FM031500 VRB03KT P6SM FEW010


METAR Board
Radar Display
Forecast Discussion
For situational awareness. Not to be used for flight planning purposes.